M V Trinidad — LAIY4 — position and weather

sailwx.info

Track history (hours):
 
Tides and Currents Weather Stations Pressure Air Temp Water Temp Dewpoint Dewpoint Depression Visibility Wind Speed Wind Dir Waves Ship Positions

M V Trinidad

Last reported at 2014-Aug-08 18:32 UTC. Time now 2014-Aug-30 04:29 UTC.
Position N 31°06' E 122°20'.
Warning: this ship's position is 21 days out of date.

Length 189 m; draft 8.8 m.

Type: Cargo ship. MMSI: 257425411.

Date/timePositionNaut miles runAvg speedWind from/ knotsBaromVisibWave heightAir tempDewpointWater temp
2014-Aug-08 18:32N 31°06' E 122°20'2914.6
2014-Aug-08 16:32N 31°17' E 121°49'1212.7
2014-Aug-08 15:33N 31°23' E 121°36'9 9.2
2014-Aug-08 14:33N 31°28' E 121°27'1211.6
2014-Aug-08 13:33N 31°36' E 121°17'1512.8
2014-Aug-08 12:21N 31°46' E 121°03'1012.3
2014-Aug-08 11:34N 31°51' E 120°54'1211.9
2014-Aug-08 10:33N 32°00' E 120°45'1414.0
2014-Aug-08 09:33N 32°02' E 120°28'4 4.3
2014-Aug-08 08:33N 31°58' E 120°26'0 0.0
2014-Aug-08 07:27N 31°58' E 120°26'0 0.0
2014-Aug-08 06:30N 31°58' E 120°26'0 0.0
2014-Aug-08 05:33N 31°58' E 120°26'0 0.0
2014-Aug-08 04:33N 31°58' E 120°26'0 0.0
2014-Aug-08 03:30N 31°58' E 120°26'0 0.0
2014-Aug-08 02:27N 31°58' E 120°26'0 0.1
2014-Aug-08 01:33N 31°58' E 120°26'0 0.0
2014-Aug-08 00:27N 31°58' E 120°26'0 0.0
2014-Aug-07 23:33N 31°58' E 120°26'0 0.0
2014-Aug-07 22:27N 31°58' E 120°26'0 0.0
2014-Aug-07 21:33N 31°58' E 120°26'0 0.1
2014-Aug-07 20:33N 31°58' E 120°26'0 0.1
2014-Aug-07 19:33N 31°58' E 120°26'0 0.0
2014-Aug-07 18:33N 31°58' E 120°26'0 0.0
2014-Aug-07 17:34N 31°58' E 120°26'0 0.0
2014-Aug-07 16:33N 31°58' E 120°26'0 0.0
2014-Aug-07 15:33N 31°58' E 120°26'0 0.0
2014-Aug-07 14:33N 31°58' E 120°26'0 0.0
2014-Aug-07 13:27N 31°58' E 120°26'0 0.0
2014-Aug-07 12:21N 31°58' E 120°26'0 0.1
2014-Aug-07 11:33N 31°58' E 120°26'0 0.0
2014-Aug-07 10:33N 31°58' E 120°26'0 0.0
2014-Aug-07 09:33N 31°58' E 120°26'0 0.1
2014-Aug-07 08:33N 31°58' E 120°26'0 0.0
2014-Aug-07 07:27N 31°58' E 120°26'0 0.1
2014-Aug-07 06:33N 31°58' E 120°26'0 0.0
2014-Aug-07 05:33N 31°58' E 120°26'0 0.0
2014-Aug-07 04:33N 31°58' E 120°26'0 0.0
2014-Aug-07 03:33N 31°58' E 120°26'0 0.1
2014-Aug-07 02:33N 31°58' E 120°26'0 0.0
2014-Aug-07 01:27N 31°58' E 120°26'0 0.0
2014-Aug-07 00:33N 31°58' E 120°26'0 0.0
2014-Aug-06 23:33N 31°58' E 120°26'0 0.0
2014-Aug-06 22:30N 31°58' E 120°26'0 0.0
2014-Aug-06 21:30N 31°58' E 120°26'0 0.0
2014-Aug-06 20:27N 31°58' E 120°26'0 0.0
2014-Aug-06 19:09N 31°58' E 120°26'0 0.0
2014-Aug-06 18:27N 31°58' E 120°26'0 0.0
2014-Aug-06 17:30N 31°58' E 120°26'0 0.0
2014-Aug-06 16:27N 31°58' E 120°26'0 0.0
2014-Aug-06 15:33N 31°58' E 120°26'0 0.0
2014-Aug-06 14:30N 31°58' E 120°26'0 0.1
2014-Aug-06 13:33N 31°58' E 120°26'0 0.1
2014-Aug-06 12:33N 31°58' E 120°26'0 0.0
2014-Aug-06 11:33N 31°58' E 120°26'0 0.0
2014-Aug-06 10:27N 31°58' E 120°26'0 0.0
2014-Aug-06 09:33N 31°58' E 120°26'0 0.1
2014-Aug-06 08:33N 31°58' E 120°26'0 0.1
2014-Aug-06 07:34N 31°58' E 120°26'0 0.0
2014-Aug-06 06:30N 31°58' E 120°26'0 0.0
2014-Aug-06 05:33N 31°58' E 120°26'0 0.0
2014-Aug-06 04:33N 31°58' E 120°26'0 0.1
2014-Aug-06 03:33N 31°58' E 120°26'0 0.3
2014-Aug-06 02:33N 31°58' E 120°26'4 4.3
2014-Aug-06 01:33N 32°02' E 120°28'1010.0
2014-Aug-06 00:33N 31°60' E 120°39'1110.9
2014-Aug-05 23:33N 31°57' E 120°52'1211.7
2014-Aug-05 22:33N 31°47' E 120°58'1212.2
2014-Aug-05 21:33N 31°41' E 121°11'4 4.2
2014-Aug-05 20:31N 31°39' E 121°15'0 0.0
2014-Aug-05 19:31N 31°39' E 121°15'0 0.1
2014-Aug-05 18:31N 31°39' E 121°15'0 0.0
2014-Aug-05 17:31N 31°39' E 121°15'0 0.0
2014-Aug-05 16:29N 31°39' E 121°15'0 0.0
2014-Aug-05 15:19N 31°39' E 121°15'0 0.0
2014-Aug-05 14:28N 31°39' E 121°15'5 5.5
2014-Aug-05 13:33N 31°34' E 121°19'1212.0
2014-Aug-05 12:33N 31°26' E 121°29'8 7.6
2014-Aug-05 11:33N 31°22' E 121°37'1110.6
2014-Aug-05 10:33N 31°18' E 121°48'1612.3
2014-Aug-05 09:14N 31°14' E 122°06'1012.8
2014-Aug-05 08:29N 31°08' E 122°15'8 8.3
2014-Aug-05 07:33N 31°06' E 122°24'9 8.4
2014-Aug-05 06:28N 31°07' E 122°35'11 8.2
2014-Aug-05 05:09N 31°11' E 122°46'0 0.1
2014-Aug-05 03:32N 31°11' E 122°46'0 0.0
2014-Aug-05 02:32N 31°11' E 122°46'0 0.0
2014-Aug-04 20:14N 31°11' E 122°46'10 2.4
2014-Aug-04 16:11N 31°12' E 122°58'1014.4
2014-Aug-04 15:29N 31°16' E 123°09'1314.6
2014-Aug-04 14:33N 31°21' E 123°24'1514.4
2014-Aug-04 13:33N 31°25' E 123°40'1413.9
2014-Aug-04 12:33N 31°30' E 123°55'1413.6
2014-Aug-04 11:32N 31°35' E 124°10'1913.8
2014-Aug-04 10:09N 31°43' E 124°31'1313.6
2014-Aug-04 09:11N 31°46' E 124°45'914.0
2014-Aug-04 08:34N 31°49' E 124°55'1614.0
2014-Aug-04 07:24N 31°55' E 125°13'  
Track history (hours):
 
Tides and Currents Weather Stations Pressure Air Temp Water Temp Dewpoint Dewpoint Depression Visibility Wind Speed Wind Dir Waves Ship Positions

M V Trinidad

Last reported at 2014-Aug-08 18:32 UTC. Time now 2014-Aug-30 04:29 UTC.
Position N 31°06' E 122°20'.
Warning: this ship's position is 21 days out of date.

Length 189 m; draft 8.8 m.

Type: Cargo ship. MMSI: 257425411.

Date/timePositionNaut miles runAvg speedWind from/ knotsBaromVisibWave heightAir tempDewpointWater temp
2014-Aug-08 18:32N 31°06' E 122°20'2914.6
2014-Aug-08 16:32N 31°17' E 121°49'1212.7
2014-Aug-08 15:33N 31°23' E 121°36'9 9.2
2014-Aug-08 14:33N 31°28' E 121°27'1211.6
2014-Aug-08 13:33N 31°36' E 121°17'1512.8
2014-Aug-08 12:21N 31°46' E 121°03'1012.3
2014-Aug-08 11:34N 31°51' E 120°54'1211.9
2014-Aug-08 10:33N 32°00' E 120°45'1414.0
2014-Aug-08 09:33N 32°02' E 120°28'4 4.3
2014-Aug-08 08:33N 31°58' E 120°26'0 0.0
2014-Aug-08 07:27N 31°58' E 120°26'0 0.0
2014-Aug-08 06:30N 31°58' E 120°26'0 0.0
2014-Aug-08 05:33N 31°58' E 120°26'0 0.0
2014-Aug-08 04:33N 31°58' E 120°26'0 0.0
2014-Aug-08 03:30N 31°58' E 120°26'0 0.0
2014-Aug-08 02:27N 31°58' E 120°26'0 0.1
2014-Aug-08 01:33N 31°58' E 120°26'0 0.0
2014-Aug-08 00:27N 31°58' E 120°26'0 0.0
2014-Aug-07 23:33N 31°58' E 120°26'0 0.0
2014-Aug-07 22:27N 31°58' E 120°26'0 0.0
2014-Aug-07 21:33N 31°58' E 120°26'0 0.1
2014-Aug-07 20:33N 31°58' E 120°26'0 0.1
2014-Aug-07 19:33N 31°58' E 120°26'0 0.0
2014-Aug-07 18:33N 31°58' E 120°26'0 0.0
2014-Aug-07 17:34N 31°58' E 120°26'0 0.0
2014-Aug-07 16:33N 31°58' E 120°26'0 0.0
2014-Aug-07 15:33N 31°58' E 120°26'0 0.0
2014-Aug-07 14:33N 31°58' E 120°26'0 0.0
2014-Aug-07 13:27N 31°58' E 120°26'0 0.0
2014-Aug-07 12:21N 31°58' E 120°26'0 0.1
2014-Aug-07 11:33N 31°58' E 120°26'0 0.0
2014-Aug-07 10:33N 31°58' E 120°26'0 0.0
2014-Aug-07 09:33N 31°58' E 120°26'0 0.1
2014-Aug-07 08:33N 31°58' E 120°26'0 0.0
2014-Aug-07 07:27N 31°58' E 120°26'0 0.1
2014-Aug-07 06:33N 31°58' E 120°26'0 0.0
2014-Aug-07 05:33N 31°58' E 120°26'0 0.0
2014-Aug-07 04:33N 31°58' E 120°26'0 0.0
2014-Aug-07 03:33N 31°58' E 120°26'0 0.1
2014-Aug-07 02:33N 31°58' E 120°26'0 0.0
2014-Aug-07 01:27N 31°58' E 120°26'0 0.0
2014-Aug-07 00:33N 31°58' E 120°26'0 0.0
2014-Aug-06 23:33N 31°58' E 120°26'0 0.0
2014-Aug-06 22:30N 31°58' E 120°26'0 0.0
2014-Aug-06 21:30N 31°58' E 120°26'0 0.0
2014-Aug-06 20:27N 31°58' E 120°26'0 0.0
2014-Aug-06 19:09N 31°58' E 120°26'0 0.0
2014-Aug-06 18:27N 31°58' E 120°26'0 0.0
2014-Aug-06 17:30N 31°58' E 120°26'0 0.0
2014-Aug-06 16:27N 31°58' E 120°26'0 0.0
2014-Aug-06 15:33N 31°58' E 120°26'0 0.0
2014-Aug-06 14:30N 31°58' E 120°26'0 0.1
2014-Aug-06 13:33N 31°58' E 120°26'0 0.1
2014-Aug-06 12:33N 31°58' E 120°26'0 0.0
2014-Aug-06 11:33N 31°58' E 120°26'0 0.0
2014-Aug-06 10:27N 31°58' E 120°26'0 0.0
2014-Aug-06 09:33N 31°58' E 120°26'0 0.1
2014-Aug-06 08:33N 31°58' E 120°26'0 0.1
2014-Aug-06 07:34N 31°58' E 120°26'0 0.0
2014-Aug-06 06:30N 31°58' E 120°26'0 0.0
2014-Aug-06 05:33N 31°58' E 120°26'0 0.0
2014-Aug-06 04:33N 31°58' E 120°26'0 0.1
2014-Aug-06 03:33N 31°58' E 120°26'0 0.3
2014-Aug-06 02:33N 31°58' E 120°26'4 4.3
2014-Aug-06 01:33N 32°02' E 120°28'1010.0
2014-Aug-06 00:33N 31°60' E 120°39'1110.9
2014-Aug-05 23:33N 31°57' E 120°52'1211.7
2014-Aug-05 22:33N 31°47' E 120°58'1212.2
2014-Aug-05 21:33N 31°41' E 121°11'4 4.2
2014-Aug-05 20:31N 31°39' E 121°15'0 0.0
2014-Aug-05 19:31N 31°39' E 121°15'0 0.1
2014-Aug-05 18:31N 31°39' E 121°15'0 0.0
2014-Aug-05 17:31N 31°39' E 121°15'0 0.0
2014-Aug-05 16:29N 31°39' E 121°15'0 0.0
2014-Aug-05 15:19N 31°39' E 121°15'0 0.0
2014-Aug-05 14:28N 31°39' E 121°15'5 5.5
2014-Aug-05 13:33N 31°34' E 121°19'1212.0
2014-Aug-05 12:33N 31°26' E 121°29'8 7.6
2014-Aug-05 11:33N 31°22' E 121°37'1110.6
2014-Aug-05 10:33N 31°18' E 121°48'1612.3
2014-Aug-05 09:14N 31°14' E 122°06'1012.8
2014-Aug-05 08:29N 31°08' E 122°15'8 8.3
2014-Aug-05 07:33N 31°06' E 122°24'9 8.4
2014-Aug-05 06:28N 31°07' E 122°35'11 8.2
2014-Aug-05 05:09N 31°11' E 122°46'0 0.1
2014-Aug-05 03:32N 31°11' E 122°46'0 0.0
2014-Aug-05 02:32N 31°11' E 122°46'0 0.0
2014-Aug-04 20:14N 31°11' E 122°46'10 2.4
2014-Aug-04 16:11N 31°12' E 122°58'1014.4
2014-Aug-04 15:29N 31°16' E 123°09'1314.6
2014-Aug-04 14:33N 31°21' E 123°24'1514.4
2014-Aug-04 13:33N 31°25' E 123°40'1413.9
2014-Aug-04 12:33N 31°30' E 123°55'1413.6
2014-Aug-04 11:32N 31°35' E 124°10'1913.8
2014-Aug-04 10:09N 31°43' E 124°31'1313.6
2014-Aug-04 09:11N 31°46' E 124°45'914.0
2014-Aug-04 08:34N 31°49' E 124°55'1614.0
2014-Aug-04 07:24N 31°55' E 125°13'  

Dump ship's entire track history